createdAt,value
2017-06-22T04:26:48.541Z,724
2017-06-22T04:27:51.264Z,728
2017-06-22T04:28:53.953Z,724
2017-06-22T04:29:56.643Z,720
2017-06-22T04:30:59.399Z,736
2017-06-22T04:32:02.089Z,748
2017-06-22T04:33:04.572Z,768
2017-06-22T04:34:07.218Z,768
2017-06-22T04:35:09.819Z,744
2017-06-22T04:36:12.346Z,732
2017-06-22T04:37:14.977Z,740
2017-06-22T04:38:17.473Z,740
2017-06-22T04:39:20.114Z,736
2017-06-22T04:40:22.841Z,728
2017-06-22T04:41:25.433Z,732
2017-06-22T04:42:28.026Z,752
2017-06-22T04:43:30.621Z,756
2017-06-22T04:44:33.159Z,756
2017-06-22T04:45:35.872Z,760
2017-06-22T04:46:38.452Z,760
2017-06-22T04:47:41.045Z,760
2017-06-22T04:48:43.654Z,768
2017-06-22T04:49:46.461Z,772
2017-06-22T04:50:49.157Z,792
2017-06-22T04:51:51.853Z,820
2017-06-22T04:52:54.580Z,844
2017-06-22T04:53:57.230Z,864
2017-06-22T04:54:59.844Z,876
2017-06-22T04:56:02.410Z,872
2017-06-22T04:57:04.994Z,864
2017-06-22T04:58:07.601Z,880
2017-06-22T04:59:10.293Z,908
2017-06-22T05:00:13.004Z,924
2017-06-22T05:01:15.595Z,932
2017-06-22T05:02:18.090Z,928
2017-06-22T05:03:20.582Z,960
2017-06-22T05:04:23.068Z,988
2017-06-22T05:05:25.640Z,1016
2017-06-22T05:06:28.235Z,1036
2017-06-22T05:07:30.801Z,1056
2017-06-22T05:08:33.482Z,1096
2017-06-22T05:09:36.053Z,1116
2017-06-22T05:10:38.754Z,1104
2017-06-22T05:11:41.440Z,1092
2017-06-22T05:12:44.140Z,1092
2017-06-22T05:13:46.915Z,1108
2017-06-22T05:14:49.606Z,1144
2017-06-22T05:15:52.166Z,1196
2017-06-22T05:16:54.751Z,1232
2017-06-22T05:17:57.416Z,1212
2017-06-22T05:19:00.097Z,1184
2017-06-22T05:20:02.771Z,1200
2017-06-22T05:21:05.449Z,1216
2017-06-22T05:22:08.118Z,1220
2017-06-22T05:23:10.710Z,1212
2017-06-22T05:24:13.340Z,1212
2017-06-22T05:25:15.938Z,1200
2017-06-22T05:26:18.620Z,1180
2017-06-22T05:27:21.200Z,1164
2017-06-22T05:28:23.763Z,1164
2017-06-22T05:29:26.436Z,1196
2017-06-22T05:30:29.029Z,1244
2017-06-22T05:31:31.594Z,1256
2017-06-22T05:32:34.207Z,1248
2017-06-22T05:33:36.844Z,1240
2017-06-22T05:34:39.425Z,1252
2017-06-22T05:35:42.042Z,1260
2017-06-22T05:36:44.559Z,1244
2017-06-22T05:37:47.118Z,1256
2017-06-22T05:38:49.795Z,1252
2017-06-22T05:39:52.378Z,1264
2017-06-22T05:40:54.917Z,1276
2017-06-22T05:41:57.541Z,1268
2017-06-22T05:43:00.075Z,1264
2017-06-22T05:44:02.790Z,1272
2017-06-22T05:45:05.353Z,1288
2017-06-22T05:46:07.930Z,1312
2017-06-22T05:47:10.427Z,1336
2017-06-22T05:48:13.123Z,1360
2017-06-22T05:49:15.818Z,1380
2017-06-22T05:50:18.497Z,1368
2017-06-22T05:51:21.185Z,1344
2017-06-22T05:52:23.774Z,1360
2017-06-22T05:53:26.354Z,1368
2017-06-22T05:54:28.947Z,1340
2017-06-22T05:55:31.542Z,1312
2017-06-22T05:56:34.113Z,1304
2017-06-22T05:57:36.631Z,1320
2017-06-22T05:58:39.203Z,1328
2017-06-22T05:59:41.725Z,1336
2017-06-22T06:00:44.460Z,1336
2017-06-22T06:01:47.191Z,1340
2017-06-22T06:02:49.915Z,1372
2017-06-22T06:03:52.609Z,1392
2017-06-22T06:04:55.180Z,1408
2017-06-22T06:05:57.893Z,1436
2017-06-22T06:07:00.470Z,1472
2017-06-22T06:08:03.049Z,1500
2017-06-22T06:09:05.714Z,1500
2017-06-22T06:10:08.224Z,1496
2017-06-22T06:11:10.873Z,1492
2017-06-22T06:12:13.519Z,1524
2017-06-22T06:13:16.205Z,1568
2017-06-22T06:14:18.869Z,1596
2017-06-22T06:15:21.664Z,1588
2017-06-22T06:16:24.249Z,1556
2017-06-22T06:17:26.858Z,1536
2017-06-22T06:18:29.543Z,1524
2017-06-22T06:19:32.152Z,1524
2017-06-22T06:20:34.727Z,1536
2017-06-22T06:21:37.262Z,1544
2017-06-22T06:22:39.931Z,1580
2017-06-22T06:23:42.651Z,1624
2017-06-22T06:24:45.448Z,1648
2017-06-22T06:25:48.034Z,1664
2017-06-22T06:26:50.716Z,1680
2017-06-22T06:27:53.244Z,1676
2017-06-22T06:28:55.787Z,1652
2017-06-22T06:29:58.497Z,1648
2017-06-22T06:31:00.990Z,1660
2017-06-22T06:32:03.603Z,1688
2017-06-22T06:33:06.188Z,1700
2017-06-22T06:34:08.762Z,1736
2017-06-22T06:35:11.403Z,1740
2017-06-22T06:36:14.044Z,1720
2017-06-22T06:37:16.640Z,1752
2017-06-22T06:38:19.390Z,1784
2017-06-22T06:39:22.067Z,1832
2017-06-22T06:40:24.739Z,1824
2017-06-22T06:41:27.418Z,1824
2017-06-22T06:42:30.101Z,1832
2017-06-22T06:43:32.792Z,1848
2017-06-22T06:44:35.468Z,1872
2017-06-22T06:45:38.158Z,1868
2017-06-22T06:46:40.723Z,1848
2017-06-22T06:47:43.236Z,1852
2017-06-22T06:48:45.951Z,1868
2017-06-22T06:49:48.469Z,1908
2017-06-22T06:50:50.970Z,1952
2017-06-22T06:51:53.520Z,2008
2017-06-22T06:52:56.019Z,2036
2017-06-22T06:53:58.523Z,2024
2017-06-22T06:55:01.219Z,2060
2017-06-22T06:56:03.853Z,2052
2017-06-22T06:57:06.514Z,2052
2017-06-22T06:58:09.113Z,2056
2017-06-22T06:59:11.802Z,2088
2017-06-22T07:00:14.495Z,2096
2017-06-22T07:01:17.175Z,2092
2017-06-22T07:02:19.841Z,2140
2017-06-22T07:03:22.516Z,2192
2017-06-22T07:04:25.031Z,2272
2017-06-22T07:05:27.632Z,2236
2017-06-22T07:06:30.285Z,2288
2017-06-22T07:07:32.763Z,2308
2017-06-22T07:08:35.241Z,2348
2017-06-22T07:09:37.725Z,2424
2017-06-22T07:10:40.396Z,2488
2017-06-22T07:11:42.987Z,2420
2017-06-22T07:12:45.490Z,2444
2017-06-22T07:13:48.152Z,2504
2017-06-22T07:14:50.668Z,2656
2017-06-22T07:15:53.229Z,2776
2017-06-22T07:16:55.757Z,2920
2017-06-22T07:17:58.275Z,2960
2017-06-22T07:19:00.882Z,2856
2017-06-22T07:20:03.494Z,2712
2017-06-22T07:21:06.179Z,2800
2017-06-22T07:22:08.902Z,2884
2017-06-22T07:23:11.517Z,2940
2017-06-22T07:24:14.368Z,2920
2017-06-22T07:25:16.940Z,2876
2017-06-22T07:26:19.535Z,2812
2017-06-22T07:27:22.115Z,2876
2017-06-22T07:28:24.801Z,2924
2017-06-22T07:29:27.458Z,2944
2017-06-22T07:30:30.171Z,2992
2017-06-22T07:31:32.889Z,3004
2017-06-22T07:32:35.570Z,3032
2017-06-22T07:33:38.221Z,2964
2017-06-22T07:34:40.805Z,2940
2017-06-22T07:35:43.334Z,3012
2017-06-22T07:36:46.016Z,3032
2017-06-22T07:37:48.727Z,3048
2017-06-22T07:38:51.491Z,2968
2017-06-22T07:39:54.167Z,2964
2017-06-22T07:40:56.759Z,2952
2017-06-22T07:41:59.353Z,2996
2017-06-22T07:43:01.927Z,3012
2017-06-22T07:44:04.533Z,3020
2017-06-22T07:45:07.057Z,3060
2017-06-22T07:46:09.542Z,3000
2017-06-22T07:47:12.133Z,3032
2017-06-22T07:48:14.665Z,2996
2017-06-22T07:49:17.272Z,3072
2017-06-22T07:50:19.803Z,3232
2017-06-22T07:51:22.400Z,3456
2017-06-22T07:52:24.982Z,3588
2017-06-22T07:53:27.521Z,3628
2017-06-22T07:54:30.054Z,3700
2017-06-22T07:55:32.584Z,3628
2017-06-22T07:56:35.152Z,3600
2017-06-22T07:57:37.844Z,3632
2017-06-22T07:58:40.528Z,3724
2017-06-22T07:59:43.233Z,3848
2017-06-22T08:00:45.920Z,3844
2017-06-22T08:01:48.495Z,3728
2017-06-22T08:02:51.077Z,3744
2017-06-22T08:03:53.718Z,3756
2017-06-22T08:04:56.406Z,3748
2017-06-22T08:05:58.982Z,3712
2017-06-22T08:07:01.553Z,3748
2017-06-22T08:08:04.223Z,3896
2017-06-22T08:09:06.764Z,4092
2017-06-22T08:10:09.259Z,4308
2017-06-22T08:11:11.833Z,4516
2017-06-22T08:12:14.484Z,4652
2017-06-22T08:13:17.141Z,4704
2017-06-22T08:14:19.819Z,4680
2017-06-22T08:15:22.406Z,4620
2017-06-22T08:16:24.957Z,4532
2017-06-22T08:17:27.500Z,4516
2017-06-22T08:18:30.186Z,4508
2017-06-22T08:19:32.873Z,4540
2017-06-22T08:20:35.541Z,4532
2017-06-22T08:21:38.217Z,4540
2017-06-22T08:22:40.888Z,4512
2017-06-22T08:23:43.554Z,4412
2017-06-22T08:24:46.222Z,4280
2017-06-22T08:25:48.950Z,4232
2017-06-22T08:26:51.536Z,4292
2017-06-22T08:27:54.207Z,4440
2017-06-22T08:28:56.788Z,4668
2017-06-22T08:29:59.376Z,5040
2017-06-22T08:31:01.993Z,5036
2017-06-22T08:32:04.567Z,4912
2017-06-22T08:33:07.143Z,4852
2017-06-22T08:34:09.679Z,4812
2017-06-22T08:35:12.339Z,4760
2017-06-22T08:36:14.919Z,4776
2017-06-22T08:37:17.474Z,4884
2017-06-22T08:38:20.096Z,5008
2017-06-22T08:39:22.678Z,5036
2017-06-22T08:40:25.261Z,5088
2017-06-22T08:41:27.890Z,4996
2017-06-22T08:42:30.424Z,4888
2017-06-22T08:43:32.963Z,5004
2017-06-22T08:44:35.597Z,5104
2017-06-22T08:45:38.277Z,5156
2017-06-22T08:46:40.842Z,5276
2017-06-22T08:47:43.519Z,5296
2017-06-22T08:48:46.194Z,5380
2017-06-22T08:49:48.929Z,5520
2017-06-22T08:50:51.684Z,5620
2017-06-22T08:51:54.425Z,5712
2017-06-22T08:52:57.129Z,5624
2017-06-22T08:53:59.921Z,5412
2017-06-22T08:55:02.531Z,5436
2017-06-22T08:56:05.131Z,5508
2017-06-22T08:57:07.761Z,5456
2017-06-22T08:58:10.428Z,5332
2017-06-22T08:59:13.020Z,5548
2017-06-22T09:00:15.619Z,5656
2017-06-22T09:01:18.322Z,5788
2017-06-22T09:02:21.096Z,6024
2017-06-22T09:03:23.799Z,5992
2017-06-22T09:04:26.578Z,5856
2017-06-22T09:05:29.184Z,5876
2017-06-22T09:06:31.784Z,6088
2017-06-22T09:07:34.376Z,6252
2017-06-22T09:08:37.049Z,6408
2017-06-22T09:09:39.627Z,6588
2017-06-22T09:10:42.259Z,6720
2017-06-22T09:11:44.952Z,6680
2017-06-22T09:12:47.623Z,6672
2017-06-22T09:13:50.134Z,6476
2017-06-22T09:14:52.673Z,6440
2017-06-22T09:15:55.255Z,6424
2017-06-22T09:16:57.935Z,6376
2017-06-22T09:18:00.639Z,6332
2017-06-22T09:19:03.317Z,6328
2017-06-22T09:20:06.083Z,6436
2017-06-22T09:21:08.660Z,6564
2017-06-22T09:22:11.252Z,6808
2017-06-22T09:23:13.872Z,6980
2017-06-22T09:24:16.467Z,7108
2017-06-22T09:25:19.102Z,7092
2017-06-22T09:26:21.826Z,7008
2017-06-22T09:27:24.412Z,6980
2017-06-22T09:28:27.117Z,7116
2017-06-22T09:29:29.693Z,7132
2017-06-22T09:30:32.265Z,7056
2017-06-22T09:31:34.882Z,7164
2017-06-22T09:32:37.731Z,7404
2017-06-22T09:33:40.344Z,7492
2017-06-22T09:34:43.037Z,7788
2017-06-22T09:35:45.551Z,7828
2017-06-22T09:36:48.155Z,7908
2017-06-22T09:37:50.883Z,8292
2017-06-22T09:38:53.578Z,8496
2017-06-22T09:39:56.327Z,8336
2017-06-22T09:40:59.096Z,8220
2017-06-22T09:42:01.726Z,8256
2017-06-22T09:43:04.428Z,8360
2017-06-22T09:44:07.034Z,8708
2017-06-22T09:45:09.632Z,8976
2017-06-22T09:46:12.395Z,9064
2017-06-22T09:47:15.142Z,9152
2017-06-22T09:48:17.838Z,9200
2017-06-22T09:49:20.542Z,9264
2017-06-22T09:50:23.176Z,9164
2017-06-22T09:51:25.683Z,8856
2017-06-22T09:52:28.409Z,9040
2017-06-22T09:53:31.010Z,9328
2017-06-22T09:54:33.520Z,10040
2017-06-22T09:55:36.053Z,10576
2017-06-22T09:56:38.543Z,10644
2017-06-22T09:57:41.050Z,10188
2017-06-22T09:58:43.592Z,9652
2017-06-22T09:59:46.176Z,9320
2017-06-22T10:00:48.767Z,9560
2017-06-22T10:01:51.377Z,9496
2017-06-22T10:02:54.001Z,9552
2017-06-22T10:03:56.640Z,9200
2017-06-22T10:05:00.076Z,9340
2017-06-22T10:06:03.890Z,9864
2017-06-22T10:07:06.838Z,10552
2017-06-22T10:08:09.682Z,10872
2017-06-22T10:09:12.663Z,11088
2017-06-22T10:10:15.351Z,10828
2017-06-22T10:11:18.015Z,10860
2017-06-22T10:12:21.330Z,11136
2017-06-22T10:13:23.941Z,11464
2017-06-22T10:14:26.519Z,11676
2017-06-22T10:15:29.105Z,12524
2017-06-22T10:16:31.828Z,13296
2017-06-22T10:17:34.521Z,13776
2017-06-22T10:18:37.234Z,14172
2017-06-22T10:19:39.741Z,14560
2017-06-22T10:20:42.414Z,14512
2017-06-22T10:21:44.930Z,14384
2017-06-22T10:22:47.438Z,14256
2017-06-22T10:23:50.111Z,13652
2017-06-22T10:24:52.788Z,13344
2017-06-22T10:25:55.388Z,12624
2017-06-22T10:26:58.057Z,12424
2017-06-22T10:28:00.828Z,13252
2017-06-22T10:29:03.540Z,14384
2017-06-22T10:30:06.347Z,15896
2017-06-22T10:31:09.057Z,16752
2017-06-22T10:32:11.755Z,17824
2017-06-22T10:33:14.472Z,17920
2017-06-22T10:34:17.120Z,17408
2017-06-22T10:35:19.618Z,16392
2017-06-22T10:36:22.325Z,16196
2017-06-22T10:37:24.919Z,16632
2017-06-22T10:38:27.505Z,17248
2017-06-22T10:39:30.113Z,17536
2017-06-22T10:40:32.799Z,17952
2017-06-22T10:41:35.505Z,17984
2017-06-22T10:42:38.218Z,17408
2017-06-22T10:43:40.915Z,16780
2017-06-22T10:44:43.455Z,16436
2017-06-22T10:45:46.022Z,16136
2017-06-22T10:46:48.631Z,15816
2017-06-22T10:47:51.387Z,15508
2017-06-22T10:48:54.014Z,15236
2017-06-22T10:49:56.686Z,15020
2017-06-22T10:50:59.358Z,14260
2017-06-22T10:52:01.935Z,14396
2017-06-22T10:53:04.498Z,14704
2017-06-22T10:54:07.092Z,14424
2017-06-22T10:55:09.674Z,14156
2017-06-22T10:56:12.336Z,13904
2017-06-22T10:57:15.012Z,13716
2017-06-22T10:58:17.509Z,13680
2017-06-22T10:59:20.182Z,13688
2017-06-22T11:00:22.661Z,13596
2017-06-22T11:01:25.285Z,13500
2017-06-22T11:02:27.794Z,13480
2017-06-22T11:03:30.400Z,13724
2017-06-22T11:04:32.905Z,14368
2017-06-22T11:05:35.612Z,15176
2017-06-22T11:06:38.292Z,15924
2017-06-22T11:07:40.981Z,16860
2017-06-22T11:08:43.723Z,17600
2017-06-22T11:09:46.395Z,17952
2017-06-22T11:10:49.076Z,17984
2017-06-22T11:11:51.758Z,17696
2017-06-22T11:12:54.458Z,16936
2017-06-22T11:13:57.095Z,15960
2017-06-22T11:14:59.675Z,15408
2017-06-22T11:16:02.308Z,15352
2017-06-22T11:17:05.349Z,15656
2017-06-22T11:18:08.017Z,16056
2017-06-22T11:19:10.606Z,16592
2017-06-22T11:25:32.649Z,19488
2017-06-22T11:26:35.342Z,19200
2017-06-22T11:27:37.906Z,18336
2017-06-22T11:31:59.693Z,17568
2017-06-22T11:33:02.305Z,18272
2017-06-22T11:34:25.453Z,19040
